sensor_id;sensor_type;location;lat;lon;timestamp;pressure;altitude;pressure_sealevel;temperature;humidity
39265;BME280;42646;51.910;7.724;2023-04-27T00:02:19;101405.59;;;5.42;82.36
39265;BME280;42646;51.910;7.724;2023-04-27T00:04:48;101406.09;;;5.33;83.44
39265;BME280;42646;51.910;7.724;2023-04-27T00:07:16;101417.16;;;5.24;84.15
39265;BME280;42646;51.910;7.724;2023-04-27T00:09:44;101409.69;;;5.16;84.71
39265;BME280;42646;51.910;7.724;2023-04-27T00:12:12;101416.22;;;5.09;85.36
39265;BME280;42646;51.910;7.724;2023-04-27T00:14:41;101413.91;;;5.03;85.61
39265;BME280;42646;51.910;7.724;2023-04-27T00:17:09;101413.41;;;4.96;85.86
39265;BME280;42646;51.910;7.724;2023-04-27T00:19:36;101412.03;;;4.89;85.78
39265;BME280;42646;51.910;7.724;2023-04-27T00:22:05;101412.47;;;4.81;85.34
39265;BME280;42646;51.910;7.724;2023-04-27T00:24:33;101411.09;;;4.74;85.30
39265;BME280;42646;51.910;7.724;2023-04-27T00:27:01;101413.19;;;4.68;85.07
39265;BME280;42646;51.910;7.724;2023-04-27T00:29:29;101417.19;;;4.59;85.08
39265;BME280;42646;51.910;7.724;2023-04-27T00:31:58;101413.16;;;4.52;84.98
39265;BME280;42646;51.910;7.724;2023-04-27T00:34:27;101413.50;;;4.46;84.77
39265;BME280;42646;51.910;7.724;2023-04-27T00:36:56;101416.50;;;4.38;84.93
39265;BME280;42646;51.910;7.724;2023-04-27T00:39:23;101415.13;;;4.31;85.21
39265;BME280;42646;51.910;7.724;2023-04-27T00:41:52;101420.72;;;4.25;85.23
39265;BME280;42646;51.910;7.724;2023-04-27T00:44:23;101422.81;;;4.18;85.55
39265;BME280;42646;51.910;7.724;2023-04-27T00:46:51;101426.59;;;4.13;85.90
39265;BME280;42646;51.910;7.724;2023-04-27T00:49:21;101422.59;;;4.06;86.79
39265;BME280;42646;51.910;7.724;2023-04-27T00:51:50;101420.25;;;3.99;87.06
39265;BME280;42646;51.910;7.724;2023-04-27T00:54:21;101424.06;;;3.94;87.86
39265;BME280;42646;51.910;7.724;2023-04-27T00:56:50;101427.84;;;3.88;88.25
39265;BME280;42646;51.910;7.724;2023-04-27T00:59:18;101420.34;;;3.81;88.20
39265;BME280;42646;51.910;7.724;2023-04-27T01:01:48;101432.88;;;3.75;88.59
39265;BME280;42646;51.910;7.724;2023-04-27T01:04:18;101435.72;;;3.71;88.74
39265;BME280;42646;51.910;7.724;2023-04-27T01:06:47;101439.59;;;3.64;89.42
39265;BME280;42646;51.910;7.724;2023-04-27T01:09:15;101442.50;;;3.58;89.12
39265;BME280;42646;51.910;7.724;2023-04-27T01:11:48;101448.06;;;3.52;89.72
39265;BME280;42646;51.910;7.724;2023-04-27T01:14:16;101451.75;;;3.47;90.14
39265;BME280;42646;51.910;7.724;2023-04-27T01:16:44;101450.19;;;3.43;90.54
39265;BME280;42646;51.910;7.724;2023-04-27T01:19:13;101458.38;;;3.37;90.86
39265;BME280;42646;51.910;7.724;2023-04-27T01:21:41;101457.81;;;3.31;90.84
39265;BME280;42646;51.910;7.724;2023-04-27T01:24:10;101457.25;;;3.24;90.77
39265;BME280;42646;51.910;7.724;2023-04-27T01:26:38;101457.47;;;3.19;90.80
39265;BME280;42646;51.910;7.724;2023-04-27T01:29:07;101458.59;;;3.14;91.28
39265;BME280;42646;51.910;7.724;2023-04-27T01:31:37;101458.00;;;3.09;91.55
39265;BME280;42646;51.910;7.724;2023-04-27T01:34:06;101466.94;;;3.05;92.10
39265;BME280;42646;51.910;7.724;2023-04-27T01:36:34;101461.03;;;3.00;92.35
39265;BME280;42646;51.910;7.724;2023-04-27T01:39:03;101469.97;;;2.95;93.25
39265;BME280;42646;51.910;7.724;2023-04-27T01:41:37;101469.38;;;2.89;93.41
39265;BME280;42646;51.910;7.724;2023-04-27T01:44:06;101474.91;;;2.83;93.52
39265;BME280;42646;51.910;7.724;2023-04-27T01:46:34;101473.41;;;2.77;93.28
39265;BME280;42646;51.910;7.724;2023-04-27T01:49:05;101464.84;;;2.74;93.65
39265;BME280;42646;51.910;7.724;2023-04-27T01:51:32;101463.34;;;2.68;93.93
39265;BME280;42646;51.910;7.724;2023-04-27T01:54:01;101467.88;;;2.64;94.79
39265;BME280;42646;51.910;7.724;2023-04-27T01:56:29;101474.25;;;2.59;95.09
39265;BME280;42646;51.910;7.724;2023-04-27T01:58:58;101474.44;;;2.54;95.52
39265;BME280;42646;51.910;7.724;2023-04-27T02:01:25;101475.53;;;2.49;95.17
39265;BME280;42646;51.910;7.724;2023-04-27T02:03:54;101484.53;;;2.43;94.71
39265;BME280;42646;51.910;7.724;2023-04-27T02:06:22;101483.06;;;2.37;93.63
39265;BME280;42646;51.910;7.724;2023-04-27T02:08:54;101485.94;;;2.31;93.25
39265;BME280;42646;51.910;7.724;2023-04-27T02:11:21;101487.75;;;2.29;93.11
39265;BME280;42646;51.910;7.724;2023-04-27T02:13:49;101484.44;;;2.26;93.80
39265;BME280;42646;51.910;7.724;2023-04-27T02:16:18;101480.06;;;2.25;94.53
39265;BME280;42646;51.910;7.724;2023-04-27T02:18:47;101485.47;;;2.22;95.05
39265;BME280;42646;51.910;7.724;2023-04-27T02:21:15;101482.97;;;2.19;95.86
39265;BME280;42646;51.910;7.724;2023-04-27T02:23:42;101482.19;;;2.17;96.31
39265;BME280;42646;51.910;7.724;2023-04-27T02:26:15;101484.88;;;2.15;96.77
39265;BME280;42646;51.910;7.724;2023-04-27T02:28:43;101472.00;;;2.09;97.39
39265;BME280;42646;51.910;7.724;2023-04-27T02:31:11;101484.41;;;2.05;97.30
39265;BME280;42646;51.910;7.724;2023-04-27T02:33:40;101485.50;;;2.00;97.63
39265;BME280;42646;51.910;7.724;2023-04-27T02:36:09;101492.72;;;1.95;97.00
39265;BME280;42646;51.910;7.724;2023-04-27T02:38:36;101489.41;;;1.90;96.27
39265;BME280;42646;51.910;7.724;2023-04-27T02:41:04;101487.91;;;1.84;94.99
39265;BME280;42646;51.910;7.724;2023-04-27T02:43:32;101488.03;;;1.81;94.39
39265;BME280;42646;51.910;7.724;2023-04-27T02:46:05;101480.22;;;1.79;94.46
39265;BME280;42646;51.910;7.724;2023-04-27T02:48:33;101487.28;;;1.77;95.10
39265;BME280;42646;51.910;7.724;2023-04-27T02:51:05;101482.19;;;1.74;96.10
39265;BME280;42646;51.910;7.724;2023-04-27T02:53:33;101477.03;;;1.71;96.87
39265;BME280;42646;51.910;7.724;2023-04-27T02:56:01;101468.53;;;1.66;97.37
39265;BME280;42646;51.910;7.724;2023-04-27T02:58:29;101471.25;;;1.63;97.87
39265;BME280;42646;51.910;7.724;2023-04-27T03:00:57;101471.38;;;1.60;97.72
39265;BME280;42646;51.910;7.724;2023-04-27T03:03:25;101464.56;;;1.56;98.21
39265;BME280;42646;51.910;7.724;2023-04-27T03:05:53;101470.84;;;1.52;97.85
39265;BME280;42646;51.910;7.724;2023-04-27T03:08:23;101464.06;;;1.46;97.23
39265;BME280;42646;51.910;7.724;2023-04-27T03:10:52;101459.81;;;1.44;96.99
39265;BME280;42646;51.910;7.724;2023-04-27T03:13:22;101460.81;;;1.40;96.85
39265;BME280;42646;51.910;7.724;2023-04-27T03:15:50;101464.44;;;1.37;97.07
39265;BME280;42646;51.910;7.724;2023-04-27T03:18:18;101459.28;;;1.34;97.52
39265;BME280;42646;51.910;7.724;2023-04-27T03:20:46;101465.56;;;1.30;97.41
39265;BME280;42646;51.910;7.724;2023-04-27T03:23:17;101476.25;;;1.25;97.50
39265;BME280;42646;51.910;7.724;2023-04-27T03:25:46;101462.47;;;1.20;96.86
39265;BME280;42646;51.910;7.724;2023-04-27T03:28:14;101467.00;;;1.15;96.06
39265;BME280;42646;51.910;7.724;2023-04-27T03:30:42;101472.34;;;1.12;95.30
39265;BME280;42646;51.910;7.724;2023-04-27T03:33:10;101471.56;;;1.10;95.33
39265;BME280;42646;51.910;7.724;2023-04-27T03:35:39;101457.63;;;1.10;95.60
39265;BME280;42646;51.910;7.724;2023-04-27T03:38:07;101452.38;;;1.10;96.54
39265;BME280;42646;51.910;7.724;2023-04-27T03:40:36;101462.00;;;1.09;97.23
39265;BME280;42646;51.910;7.724;2023-04-27T03:43:05;101458.63;;;1.05;97.77
39265;BME280;42646;51.910;7.724;2023-04-27T03:45:33;101450.97;;;1.01;97.87
39265;BME280;42646;51.910;7.724;2023-04-27T03:48:01;101461.56;;;0.98;97.90
39265;BME280;42646;51.910;7.724;2023-04-27T03:50:29;101462.53;;;0.95;98.17
39265;BME280;42646;51.910;7.724;2023-04-27T03:52:59;101465.19;;;0.94;98.58
39265;BME280;42646;51.910;7.724;2023-04-27T03:55:28;101473.13;;;0.92;98.57
39265;BME280;42646;51.910;7.724;2023-04-27T03:57:58;101470.63;;;0.89;99.04
39265;BME280;42646;51.910;7.724;2023-04-27T04:00:27;101472.50;;;0.86;99.43
39265;BME280;42646;51.910;7.724;2023-04-27T04:02:55;101486.59;;;0.82;99.67
39265;BME280;42646;51.910;7.724;2023-04-27T04:05:27;101490.25;;;0.77;99.48
39265;BME280;42646;51.910;7.724;2023-04-27T04:07:57;101490.34;;;0.74;98.71
39265;BME280;42646;51.910;7.724;2023-04-27T04:10:26;101492.13;;;0.74;98.21
39265;BME280;42646;51.910;7.724;2023-04-27T04:12:54;101494.81;;;0.72;98.24
39265;BME280;42646;51.910;7.724;2023-04-27T04:15:21;101493.94;;;0.72;98.68
39265;BME280;42646;51.910;7.724;2023-04-27T04:17:52;101493.09;;;0.71;99.43
39265;BME280;42646;51.910;7.724;2023-04-27T04:20:20;101494.03;;;0.69;99.72
39265;BME280;42646;51.910;7.724;2023-04-27T04:22:48;101494.91;;;0.69;100.00
39265;BME280;42646;51.910;7.724;2023-04-27T04:25:17;101495.03;;;0.66;100.00
39265;BME280;42646;51.910;7.724;2023-04-27T04:27:46;101497.66;;;0.65;100.00
39265;BME280;42646;51.910;7.724;2023-04-27T04:30:14;101498.66;;;0.62;100.00
39265;BME280;42646;51.910;7.724;2023-04-27T04:32:43;101502.19;;;0.61;100.00
39265;BME280;42646;51.910;7.724;2023-04-27T04:35:13;101503.09;;;0.60;100.00
39265;BME280;42646;51.910;7.724;2023-04-27T04:37:43;101507.50;;;0.58;100.00
39265;BME280;42646;51.910;7.724;2023-04-27T04:40:11;101509.34;;;0.56;100.00
39265;BME280;42646;51.910;7.724;2023-04-27T04:42:40;101507.63;;;0.55;100.00
39265;BME280;42646;51.910;7.724;2023-04-27T04:45:09;101500.69;;;0.54;100.00
39265;BME280;42646;51.910;7.724;2023-04-27T04:47:37;101504.16;;;0.55;100.00
39265;BME280;42646;51.910;7.724;2023-04-27T04:50:06;101512.88;;;0.55;100.00
39265;BME280;42646;51.910;7.724;2023-04-27T04:52:36;101512.81;;;0.57;100.00
39265;BME280;42646;51.910;7.724;2023-04-27T04:55:05;101520.59;;;0.58;100.00
39265;BME280;42646;51.910;7.724;2023-04-27T04:57:32;101507.47;;;0.60;100.00
39265;BME280;42646;51.910;7.724;2023-04-27T05:00:27;101510.94;;;0.60;100.00
39265;BME280;42646;51.910;7.724;2023-04-27T05:02:56;101510.81;;;0.63;100.00
39265;BME280;42646;51.910;7.724;2023-04-27T05:05:24;101513.34;;;0.66;100.00
39265;BME280;42646;51.910;7.724;2023-04-27T05:07:53;101511.47;;;0.70;100.00
39265;BME280;42646;51.910;7.724;2023-04-27T05:10:21;101509.69;;;0.70;100.00
39265;BME280;42646;51.910;7.724;2023-04-27T05:12:48;101517.53;;;0.72;100.00
39265;BME280;42646;51.910;7.724;2023-04-27T05:15:16;101515.78;;;0.71;100.00
39265;BME280;42646;51.910;7.724;2023-04-27T05:17:44;101509.66;;;0.72;100.00
39265;BME280;42646;51.910;7.724;2023-04-27T05:20:12;101508.69;;;0.74;100.00
39265;BME280;42646;51.910;7.724;2023-04-27T05:22:39;101519.94;;;0.76;100.00
39265;BME280;42646;51.910;7.724;2023-04-27T05:25:09;101522.47;;;0.79;100.00
39265;BME280;42646;51.910;7.724;2023-04-27T05:27:37;101525.09;;;0.79;100.00
39265;BME280;42646;51.910;7.724;2023-04-27T05:30:07;101523.25;;;0.82;100.00
39265;BME280;42646;51.910;7.724;2023-04-27T05:32:35;101528.34;;;0.86;100.00
39265;BME280;42646;51.910;7.724;2023-04-27T05:35:03;101539.53;;;0.91;100.00
39265;BME280;42646;51.910;7.724;2023-04-27T05:38:02;101535.88;;;0.95;100.00
39265;BME280;42646;51.910;7.724;2023-04-27T05:40:31;101536.69;;;0.97;100.00
39265;BME280;42646;51.910;7.724;2023-04-27T05:43:00;101538.22;;;1.03;100.00
39265;BME280;42646;51.910;7.724;2023-04-27T05:45:31;101541.56;;;1.06;100.00
39265;BME280;42646;51.910;7.724;2023-04-27T05:48:01;101538.69;;;1.14;100.00
39265;BME280;42646;51.910;7.724;2023-04-27T05:50:28;101537.47;;;1.23;100.00
39265;BME280;42646;51.910;7.724;2023-04-27T05:52:57;101541.56;;;1.30;100.00
39265;BME280;42646;51.910;7.724;2023-04-27T05:55:51;101549.03;;;1.41;100.00
39265;BME280;42646;51.910;7.724;2023-04-27T05:58:23;101552.25;;;1.49;100.00
39265;BME280;42646;51.910;7.724;2023-04-27T06:00:52;101557.06;;;1.59;100.00
39265;BME280;42646;51.910;7.724;2023-04-27T06:03:21;101552.31;;;1.69;100.00
39265;BME280;42646;51.910;7.724;2023-04-27T06:05:53;101557.16;;;1.80;100.00
39265;BME280;42646;51.910;7.724;2023-04-27T06:08:24;101559.38;;;1.91;100.00
39265;BME280;42646;51.910;7.724;2023-04-27T06:10:53;101557.03;;;2.05;100.00
39265;BME280;42646;51.910;7.724;2023-04-27T06:13:24;101552.88;;;2.21;100.00
39265;BME280;42646;51.910;7.724;2023-04-27T06:16:17;101552.88;;;2.41;100.00
39265;BME280;42646;51.910;7.724;2023-04-27T06:18:45;101553.69;;;2.64;100.00
39265;BME280;42646;51.910;7.724;2023-04-27T06:21:15;101557.88;;;2.88;100.00
39265;BME280;42646;51.910;7.724;2023-04-27T06:23:43;101558.59;;;3.12;100.00
39265;BME280;42646;51.910;7.724;2023-04-27T06:26:12;101565.31;;;3.38;100.00
39265;BME280;42646;51.910;7.724;2023-04-27T06:28:40;101564.19;;;3.63;100.00
39265;BME280;42646;51.910;7.724;2023-04-27T06:31:08;101567.28;;;3.90;100.00
39265;BME280;42646;51.910;7.724;2023-04-27T06:33:36;101561.97;;;4.09;100.00
39265;BME280;42646;51.910;7.724;2023-04-27T06:36:04;101568.44;;;4.38;100.00
39265;BME280;42646;51.910;7.724;2023-04-27T06:38:34;101567.28;;;4.61;100.00
39265;BME280;42646;51.910;7.724;2023-04-27T06:41:02;101561.47;;;4.89;100.00
39265;BME280;42646;51.910;7.724;2023-04-27T06:43:31;101562.38;;;5.05;99.59
39265;BME280;42646;51.910;7.724;2023-04-27T06:46:01;101562.78;;;5.30;96.75
39265;BME280;42646;51.910;7.724;2023-04-27T06:48:28;101559.56;;;5.57;93.13
39265;BME280;42646;51.910;7.724;2023-04-27T06:50:58;101561.63;;;5.83;89.53
39265;BME280;42646;51.910;7.724;2023-04-27T06:53:29;101560.19;;;6.09;89.78
39265;BME280;42646;51.910;7.724;2023-04-27T06:55:57;101554.34;;;6.34;88.83
39265;BME280;42646;51.910;7.724;2023-04-27T06:58:25;101552.81;;;6.60;86.18
39265;BME280;42646;51.910;7.724;2023-04-27T07:00:55;101555.13;;;6.81;88.08
39265;BME280;42646;51.910;7.724;2023-04-27T07:03:28;101547.81;;;7.00;82.94
39265;BME280;42646;51.910;7.724;2023-04-27T07:05:57;101547.97;;;7.26;83.22
39265;BME280;42646;51.910;7.724;2023-04-27T07:08:27;101543.97;;;7.47;81.89
39265;BME280;42646;51.910;7.724;2023-04-27T07:10:55;101546.13;;;7.69;81.69
39265;BME280;42646;51.910;7.724;2023-04-27T07:13:23;101538.91;;;7.85;79.45
39265;BME280;42646;51.910;7.724;2023-04-27T07:15:55;101538.44;;;8.06;76.35
39265;BME280;42646;51.910;7.724;2023-04-27T07:18:24;101546.34;;;8.20;76.20
39265;BME280;42646;51.910;7.724;2023-04-27T07:20:53;101541.78;;;8.36;74.94
39265;BME280;42646;51.910;7.724;2023-04-27T07:23:21;101539.47;;;8.57;74.38
39265;BME280;42646;51.910;7.724;2023-04-27T07:25:49;101538.94;;;8.65;71.54
39265;BME280;42646;51.910;7.724;2023-04-27T07:28:17;101528.25;;;8.79;73.68
39265;BME280;42646;51.910;7.724;2023-04-27T07:30:45;101527.41;;;8.91;73.40
39265;BME280;42646;51.910;7.724;2023-04-27T07:33:16;101533.25;;;9.09;71.95
39265;BME280;42646;51.910;7.724;2023-04-27T07:35:45;101534.06;;;9.35;70.90
39265;BME280;42646;51.910;7.724;2023-04-27T07:38:15;101526.84;;;9.37;66.04
39265;BME280;42646;51.910;7.724;2023-04-27T07:40:44;101515.44;;;9.48;66.70
39265;BME280;42646;51.910;7.724;2023-04-27T07:43:12;101518.81;;;9.62;66.57
39265;BME280;42646;51.910;7.724;2023-04-27T07:45:40;101523.41;;;9.84;65.90
39265;BME280;42646;51.910;7.724;2023-04-27T07:48:10;101523.00;;;10.02;64.82
39265;BME280;42646;51.910;7.724;2023-04-27T07:50:39;101522.38;;;10.22;63.02
39265;BME280;42646;51.910;7.724;2023-04-27T07:53:08;101518.44;;;10.28;63.14
39265;BME280;42646;51.910;7.724;2023-04-27T07:55:36;101518.72;;;10.36;63.44
39265;BME280;42646;51.910;7.724;2023-04-27T07:58:05;101524.19;;;10.46;60.18
39265;BME280;42646;51.910;7.724;2023-04-27T08:00:34;101531.00;;;10.50;58.13
39265;BME280;42646;51.910;7.724;2023-04-27T08:03:03;101521.06;;;10.52;58.74
39265;BME280;42646;51.910;7.724;2023-04-27T08:05:35;101524.72;;;10.62;59.16
39265;BME280;42646;51.910;7.724;2023-04-27T08:08:05;101520.63;;;10.69;59.29
39265;BME280;42646;51.910;7.724;2023-04-27T08:10:36;101535.66;;;10.81;58.85
39265;BME280;42646;51.910;7.724;2023-04-27T08:13:05;101535.53;;;10.94;57.37
39265;BME280;42646;51.910;7.724;2023-04-27T08:15:35;101532.41;;;11.00;55.73
39265;BME280;42646;51.910;7.724;2023-04-27T08:18:03;101530.38;;;11.04;55.64
39265;BME280;42646;51.910;7.724;2023-04-27T08:20:31;101526.25;;;11.11;56.12
39265;BME280;42646;51.910;7.724;2023-04-27T08:22:59;101530.59;;;11.23;56.21
39265;BME280;42646;51.910;7.724;2023-04-27T08:25:28;101529.16;;;11.30;55.98
39265;BME280;42646;51.910;7.724;2023-04-27T08:27:57;101528.31;;;11.41;55.28
39265;BME280;42646;51.910;7.724;2023-04-27T08:30:27;101529.25;;;11.51;54.85
39265;BME280;42646;51.910;7.724;2023-04-27T08:32:55;101532.16;;;11.59;53.91
39265;BME280;42646;51.910;7.724;2023-04-27T08:35:23;101536.28;;;11.63;53.54
39265;BME280;42646;51.910;7.724;2023-04-27T08:37:50;101533.34;;;11.66;53.07
39265;BME280;42646;51.910;7.724;2023-04-27T08:40:20;101539.78;;;11.64;53.20
39265;BME280;42646;51.910;7.724;2023-04-27T08:42:56;101539.16;;;11.71;53.15
39265;BME280;42646;51.910;7.724;2023-04-27T08:45:26;101532.72;;;11.85;51.98
39265;BME280;42646;51.910;7.724;2023-04-27T08:47:54;101537.69;;;11.90;51.06
39265;BME280;42646;51.910;7.724;2023-04-27T08:50:23;101528.84;;;11.89;50.72
39265;BME280;42646;51.910;7.724;2023-04-27T08:52:51;101519.16;;;11.77;51.66
39265;BME280;42646;51.910;7.724;2023-04-27T08:55:19;101516.63;;;11.87;52.12
39265;BME280;42646;51.910;7.724;2023-04-27T08:57:56;101520.34;;;11.95;52.68
39265;BME280;42646;51.910;7.724;2023-04-27T09:00:37;101521.06;;;11.97;51.72
39265;BME280;42646;51.910;7.724;2023-04-27T09:03:07;101517.53;;;11.97;52.34
39265;BME280;42646;51.910;7.724;2023-04-27T09:05:45;101510.63;;;12.06;51.60
39265;BME280;42646;51.910;7.724;2023-04-27T09:08:41;101512.97;;;12.20;50.82
39265;BME280;42646;51.910;7.724;2023-04-27T09:11:09;101515.41;;;12.23;50.17
39265;BME280;42646;51.910;7.724;2023-04-27T09:13:42;101513.81;;;12.20;50.28
39265;BME280;42646;51.910;7.724;2023-04-27T09:16:12;101519.63;;;12.25;49.72
39265;BME280;42646;51.910;7.724;2023-04-27T09:18:41;101518.72;;;12.36;49.53
39265;BME280;42646;51.910;7.724;2023-04-27T09:21:20;101513.47;;;12.46;50.82
39265;BME280;42646;51.910;7.724;2023-04-27T09:23:49;101516.94;;;12.57;49.74
39265;BME280;42646;51.910;7.724;2023-04-27T09:26:19;101508.41;;;12.64;49.57
39265;BME280;42646;51.910;7.724;2023-04-27T09:28:50;101505.91;;;12.72;50.08
39265;BME280;42646;51.910;7.724;2023-04-27T09:31:20;101513.56;;;12.86;49.19
39265;BME280;42646;51.910;7.724;2023-04-27T09:33:54;101510.66;;;12.89;48.86
39265;BME280;42646;51.910;7.724;2023-04-27T09:36:22;101511.94;;;12.95;48.36
39265;BME280;42646;51.910;7.724;2023-04-27T09:38:51;101502.19;;;12.84;48.44
39265;BME280;42646;51.910;7.724;2023-04-27T09:41:20;101505.03;;;12.92;47.89
39265;BME280;42646;51.910;7.724;2023-04-27T09:43:53;101492.19;;;12.76;46.31
39265;BME280;42646;51.910;7.724;2023-04-27T09:46:25;101491.53;;;12.63;46.95
39265;BME280;42646;51.910;7.724;2023-04-27T09:48:55;101481.97;;;12.61;46.84
39265;BME280;42646;51.910;7.724;2023-04-27T09:51:23;101482.22;;;12.57;45.61
39265;BME280;42646;51.910;7.724;2023-04-27T09:53:53;101489.66;;;12.54;45.65
39265;BME280;42646;51.910;7.724;2023-04-27T09:56:31;101480.09;;;12.51;44.58
39265;BME280;42646;51.910;7.724;2023-04-27T09:59:17;101481.88;;;12.51;44.59
39265;BME280;42646;51.910;7.724;2023-04-27T10:01:54;101467.75;;;12.60;45.06
39265;BME280;42646;51.910;7.724;2023-04-27T10:04:41;101481.63;;;12.75;43.68
39265;BME280;42646;51.910;7.724;2023-04-27T10:07:13;101467.09;;;12.68;44.14
39265;BME280;42646;51.910;7.724;2023-04-27T10:09:43;101474.56;;;12.74;44.96
39265;BME280;42646;51.910;7.724;2023-04-27T10:12:17;101477.56;;;12.80;45.24
39265;BME280;42646;51.910;7.724;2023-04-27T10:14:51;101476.31;;;12.84;44.97
39265;BME280;42646;51.910;7.724;2023-04-27T10:17:23;101479.06;;;12.94;43.76
39265;BME280;42646;51.910;7.724;2023-04-27T10:19:53;101475.09;;;12.89;43.34
39265;BME280;42646;51.910;7.724;2023-04-27T10:22:24;101466.94;;;12.90;43.88
39265;BME280;42646;51.910;7.724;2023-04-27T10:25:13;101468.16;;;13.07;44.54
39265;BME280;42646;51.910;7.724;2023-04-27T10:27:48;101467.31;;;13.06;43.14
39265;BME280;42646;51.910;7.724;2023-04-27T10:30:19;101465.31;;;13.08;44.18
39265;BME280;42646;51.910;7.724;2023-04-27T10:32:52;101470.28;;;13.13;44.67
39265;BME280;42646;51.910;7.724;2023-04-27T10:35:21;101468.03;;;13.18;44.26
39265;BME280;42646;51.910;7.724;2023-04-27T10:37:49;101475.31;;;13.06;43.89
39265;BME280;42646;51.910;7.724;2023-04-27T10:40:19;101475.03;;;13.09;43.22
39265;BME280;42646;51.910;7.724;2023-04-27T10:42:46;101466.53;;;12.95;44.19
39265;BME280;42646;51.910;7.724;2023-04-27T10:45:26;101458.84;;;13.01;44.37
39265;BME280;42646;51.910;7.724;2023-04-27T10:47:59;101451.81;;;13.00;45.24
39265;BME280;42646;51.910;7.724;2023-04-27T10:50:28;101447.16;;;13.02;45.07
39265;BME280;42646;51.910;7.724;2023-04-27T10:52:59;101443.13;;;13.08;45.47
39265;BME280;42646;51.910;7.724;2023-04-27T10:55:28;101444.16;;;13.17;45.66
39265;BME280;42646;51.910;7.724;2023-04-27T10:57:58;101431.13;;;13.23;44.38
39265;BME280;42646;51.910;7.724;2023-04-27T11:00:32;101430.97;;;13.25;44.05
39265;BME280;42646;51.910;7.724;2023-04-27T11:03:10;101422.00;;;13.35;44.06
39265;BME280;42646;51.910;7.724;2023-04-27T11:05:39;101423.84;;;13.45;44.02
39265;BME280;42646;51.910;7.724;2023-04-27T11:08:09;101423.00;;;13.34;43.91
39265;BME280;42646;51.910;7.724;2023-04-27T11:10:43;101422.56;;;13.29;43.59
39265;BME280;42646;51.910;7.724;2023-04-27T11:13:15;101417.22;;;13.29;43.44
39265;BME280;42646;51.910;7.724;2023-04-27T11:15:45;101425.22;;;13.29;43.28
39265;BME280;42646;51.910;7.724;2023-04-27T11:18:14;101416.19;;;13.21;43.38
39265;BME280;42646;51.910;7.724;2023-04-27T11:20:45;101416.00;;;13.13;43.49
39265;BME280;42646;51.910;7.724;2023-04-27T11:23:22;101412.44;;;13.02;43.77
39265;BME280;42646;51.910;7.724;2023-04-27T11:25:52;101411.88;;;12.99;43.79
39265;BME280;42646;51.910;7.724;2023-04-27T11:28:23;101420.94;;;12.87;43.82
39265;BME280;42646;51.910;7.724;2023-04-27T11:30:56;101414.47;;;12.79;43.92
39265;BME280;42646;51.910;7.724;2023-04-27T11:33:24;101420.53;;;12.81;43.41
39265;BME280;42646;51.910;7.724;2023-04-27T11:35:52;101422.47;;;12.79;43.44
39265;BME280;42646;51.910;7.724;2023-04-27T11:38:21;101422.47;;;12.79;43.53
39265;BME280;42646;51.910;7.724;2023-04-27T11:40:58;101425.97;;;12.80;43.73
39265;BME280;42646;51.910;7.724;2023-04-27T11:43:27;101415.19;;;12.81;44.05
39265;BME280;42646;51.910;7.724;2023-04-27T11:46:00;101412.53;;;12.81;44.05
39265;BME280;42646;51.910;7.724;2023-04-27T11:48:29;101416.47;;;12.87;44.09
39265;BME280;42646;51.910;7.724;2023-04-27T11:50:57;101425.59;;;12.84;44.19
39265;BME280;42646;51.910;7.724;2023-04-27T11:53:30;101424.16;;;12.80;43.79
39265;BME280;42646;51.910;7.724;2023-04-27T11:55:59;101419.69;;;12.81;43.70
39265;BME280;42646;51.910;7.724;2023-04-27T11:58:32;101418.56;;;12.83;43.94
39265;BME280;42646;51.910;7.724;2023-04-27T12:01:03;101409.00;;;12.81;42.71
39265;BME280;42646;51.910;7.724;2023-04-27T12:03:31;101414.91;;;12.84;43.28
39265;BME280;42646;51.910;7.724;2023-04-27T12:06:01;101406.09;;;12.94;43.11
39265;BME280;42646;51.910;7.724;2023-04-27T12:08:49;101411.50;;;13.13;42.58
39265;BME280;42646;51.910;7.724;2023-04-27T12:11:16;101406.56;;;13.08;42.84
39265;BME280;42646;51.910;7.724;2023-04-27T12:13:45;101413.25;;;13.24;42.90
39265;BME280;42646;51.910;7.724;2023-04-27T12:16:14;101413.78;;;13.18;42.66
39265;BME280;42646;51.910;7.724;2023-04-27T12:18:42;101407.16;;;13.12;42.80
39265;BME280;42646;51.910;7.724;2023-04-27T12:21:10;101399.28;;;13.10;43.18
39265;BME280;42646;51.910;7.724;2023-04-27T12:23:38;101394.78;;;13.11;43.14
39265;BME280;42646;51.910;7.724;2023-04-27T12:26:06;101399.81;;;13.14;42.13
39265;BME280;42646;51.910;7.724;2023-04-27T12:28:34;101392.41;;;13.18;42.33
39265;BME280;42646;51.910;7.724;2023-04-27T12:31:04;101387.91;;;13.18;42.31
39265;BME280;42646;51.910;7.724;2023-04-27T12:33:35;101391.41;;;13.19;42.33
39265;BME280;42646;51.910;7.724;2023-04-27T12:36:03;101390.72;;;13.17;42.66
39265;BME280;42646;51.910;7.724;2023-04-27T12:38:31;101391.56;;;13.17;42.57
39265;BME280;42646;51.910;7.724;2023-04-27T12:41:00;101390.13;;;13.13;41.63
39265;BME280;42646;51.910;7.724;2023-04-27T12:43:28;101406.13;;;13.03;41.49
39265;BME280;42646;51.910;7.724;2023-04-27T12:45:56;101395.22;;;12.86;42.12
39265;BME280;42646;51.910;7.724;2023-04-27T12:48:24;101393.84;;;12.81;42.79
39265;BME280;42646;51.910;7.724;2023-04-27T12:50:53;101394.09;;;12.78;42.31
39265;BME280;42646;51.910;7.724;2023-04-27T12:53:21;101389.72;;;12.77;42.05
39265;BME280;42646;51.910;7.724;2023-04-27T12:55:50;101389.13;;;12.74;42.16
39265;BME280;42646;51.910;7.724;2023-04-27T12:58:18;101382.97;;;12.73;42.59
39265;BME280;42646;51.910;7.724;2023-04-27T13:00:47;101389.28;;;12.72;42.99
39265;BME280;42646;51.910;7.724;2023-04-27T13:03:15;101385.31;;;12.67;43.28
39265;BME280;42646;51.910;7.724;2023-04-27T13:05:42;101383.59;;;12.56;42.71
39265;BME280;42646;51.910;7.724;2023-04-27T13:08:12;101391.03;;;12.52;42.57
39265;BME280;42646;51.910;7.724;2023-04-27T13:10:40;101384.56;;;12.55;42.30